Villaverde del Rio, Spain
Current Conditions -  °F | °C
As of 2:30 PM on Sunday 23 Nov 2014 (Local Time) from LEZL Reporting Station
Clear Clear  
Wind Chill: 70°   Ceiling: Unl
Heat Index: 70°   Visibility: 6mi
Dew Point: 57°   Wind: 1mph
Humidity: 64%   Direction: NA
Pressure: 29.8"   Gusts: NA
Location:  37.59°N, 5.87°W
Report Text: LEZL 231330Z VRB01KT 9000 NSC 21/14 Q1009 NOSIG
Loading
Personal Weather Stations






























Interactive Weather Map New forecast layout! Learn more

10-Day Weather Forecast

Advertisements
Track Severe Weather on mobile